createdAt,value
2018-01-17T00:02:01.894Z,7.20
2018-01-17T00:04:29.387Z,6.77
2018-01-17T00:06:56.892Z,7.20
2018-01-17T00:09:24.405Z,6.10
2018-01-17T00:11:51.904Z,6.40
2018-01-17T00:14:19.430Z,6.57
2018-01-17T00:16:46.943Z,8.00
2018-01-17T00:19:14.462Z,7.07
2018-01-17T00:21:41.950Z,6.47
2018-01-17T00:24:09.435Z,6.03
2018-01-17T00:26:37.579Z,5.57
2018-01-17T00:29:05.107Z,6.10
2018-01-17T00:31:32.614Z,5.67
2018-01-17T00:34:00.116Z,6.80
2018-01-17T00:36:27.621Z,6.30
2018-01-17T00:38:55.122Z,6.73
2018-01-17T00:41:22.631Z,6.43
2018-01-17T00:43:50.123Z,7.43
2018-01-17T00:46:17.650Z,7.73
2018-01-17T00:48:45.151Z,7.77
2018-01-17T00:51:12.630Z,8.50
2018-01-17T00:53:40.149Z,9.07
2018-01-17T00:56:10.583Z,9.73
2018-01-17T00:58:38.056Z,8.67
2018-01-17T01:01:05.598Z,8.63
2018-01-17T01:03:33.075Z,8.03
2018-01-17T01:06:00.605Z,7.90
2018-01-17T01:08:28.115Z,7.00
2018-01-17T01:10:55.626Z,7.07
2018-01-17T01:13:23.153Z,8.43
2018-01-17T01:15:50.648Z,7.93
2018-01-17T01:18:18.175Z,8.77
2018-01-17T01:20:45.660Z,8.33
2018-01-17T01:23:13.166Z,9.60
2018-01-17T01:25:40.698Z,10.17
2018-01-17T01:28:08.745Z,9.30
2018-01-17T01:30:36.252Z,9.00
2018-01-17T01:33:03.774Z,9.07
2018-01-17T01:35:31.290Z,8.13
2018-01-17T01:37:58.783Z,7.23
2018-01-17T01:40:26.276Z,6.80
2018-01-17T01:42:53.790Z,6.43
2018-01-17T01:45:21.538Z,6.03
2018-01-17T01:47:49.035Z,5.83
2018-01-17T01:50:16.521Z,6.73
2018-01-17T01:52:44.039Z,7.20
2018-01-17T01:55:11.536Z,6.60
2018-01-17T01:57:39.043Z,7.20
2018-01-17T02:00:06.838Z,6.13
2018-01-17T02:02:34.320Z,6.13
2018-01-17T02:05:01.808Z,8.37
2018-01-17T02:07:29.315Z,6.90
2018-01-17T02:09:56.805Z,8.10
2018-01-17T02:12:24.311Z,8.57
2018-01-17T02:14:51.811Z,8.63
2018-01-17T02:17:19.315Z,7.10
2018-01-17T02:19:46.819Z,6.87
2018-01-17T02:22:14.312Z,6.83
2018-01-17T02:24:41.826Z,6.70
2018-01-17T02:27:09.343Z,6.10
2018-01-17T02:29:36.850Z,6.07
2018-01-17T02:32:04.347Z,7.03
2018-01-17T02:34:31.858Z,7.40
2018-01-17T02:36:59.364Z,6.83
2018-01-17T02:42:31.015Z,5.23
2018-01-17T02:44:59.115Z,5.60
2018-01-17T02:47:26.614Z,5.00
2018-01-17T02:49:54.138Z,5.03
2018-01-17T02:52:21.628Z,5.13
2018-01-17T02:54:49.148Z,5.57
2018-01-17T02:57:17.218Z,5.77
2018-01-17T02:59:45.496Z,5.50
2018-01-17T03:02:12.980Z,5.77
2018-01-17T03:04:40.482Z,5.80
2018-01-17T03:07:07.983Z,5.90
2018-01-17T03:09:35.480Z,6.20
2018-01-17T03:12:03.040Z,5.70
2018-01-17T03:14:30.547Z,5.27
2018-01-17T03:16:58.048Z,5.27
2018-01-17T03:19:25.552Z,4.90
2018-01-17T03:21:53.036Z,5.67
2018-01-17T03:24:20.568Z,5.20
2018-01-17T03:26:48.066Z,5.57
2018-01-17T03:29:15.610Z,6.10
2018-01-17T03:31:43.103Z,5.93
2018-01-17T03:34:10.620Z,6.67
2018-01-17T03:36:38.121Z,7.00
2018-01-17T03:39:05.628Z,7.17
2018-01-17T03:41:33.416Z,6.43
2018-01-17T03:44:00.998Z,5.13
2018-01-17T03:46:28.518Z,4.87
2018-01-17T03:48:56.003Z,4.83
2018-01-17T03:51:23.506Z,4.40
2018-01-17T03:53:51.018Z,5.30
2018-01-17T03:56:18.552Z,4.63
2018-01-17T03:58:46.036Z,5.10
2018-01-17T04:01:13.532Z,5.03
2018-01-17T04:03:41.048Z,5.40
2018-01-17T04:06:08.573Z,5.27
2018-01-17T04:08:36.087Z,4.80
2018-01-17T04:11:03.638Z,5.03
2018-01-17T04:13:31.164Z,5.37
2018-01-17T04:15:58.686Z,5.63
2018-01-17T04:18:27.093Z,5.30
2018-01-17T04:20:54.598Z,6.30
2018-01-17T04:23:22.103Z,7.00
2018-01-17T04:25:49.602Z,6.70
2018-01-17T04:28:17.104Z,7.37
2018-01-17T04:30:44.618Z,7.20
2018-01-17T04:33:12.124Z,7.93
2018-01-17T04:35:39.658Z,6.63
2018-01-17T04:38:07.152Z,5.13
2018-01-17T04:40:34.652Z,4.60
2018-01-17T04:43:02.156Z,2.97
2018-01-17T04:45:29.638Z,3.07
2018-01-17T04:47:57.139Z,3.00
2018-01-17T04:50:24.993Z,2.77
2018-01-17T04:52:52.519Z,2.70
2018-01-17T04:55:20.026Z,3.03
2018-01-17T04:57:47.504Z,2.50
2018-01-17T05:00:14.996Z,2.30
2018-01-17T05:02:42.480Z,2.27
2018-01-17T05:05:09.989Z,2.40
2018-01-17T05:07:37.497Z,2.40
2018-01-17T05:10:04.972Z,2.20
2018-01-17T05:12:32.461Z,2.37
2018-01-17T05:14:59.955Z,2.10
2018-01-17T05:17:27.440Z,2.20
2018-01-17T05:19:54.916Z,2.30
2018-01-17T05:22:22.404Z,2.43
2018-01-17T05:24:49.879Z,2.40
2018-01-17T05:27:17.379Z,2.37
2018-01-17T05:29:44.881Z,2.50
2018-01-17T05:32:12.382Z,2.93
2018-01-17T05:34:39.881Z,3.10
2018-01-17T05:37:07.399Z,3.10
2018-01-17T05:39:34.902Z,3.37
2018-01-17T05:42:02.994Z,3.57
2018-01-17T05:44:31.193Z,3.53
2018-01-17T05:46:58.705Z,3.80
2018-01-17T05:49:26.244Z,3.63
2018-01-17T05:51:53.737Z,3.43
2018-01-17T05:54:21.283Z,4.23
2018-01-17T05:56:48.875Z,4.10
2018-01-17T05:59:16.410Z,4.17
2018-01-17T06:01:44.045Z,4.03
2018-01-17T06:04:11.602Z,3.57
2018-01-17T06:06:39.167Z,4.37
2018-01-17T06:09:06.740Z,3.80
2018-01-17T06:11:34.248Z,3.90
2018-01-17T06:14:01.761Z,3.80
2018-01-17T06:16:29.315Z,3.77
2018-01-17T06:18:56.824Z,3.67
2018-01-17T06:21:24.466Z,3.70
2018-01-17T06:23:52.002Z,3.37
2018-01-17T06:26:19.530Z,4.13
2018-01-17T06:28:47.098Z,3.50
2018-01-17T06:31:14.618Z,4.20
2018-01-17T06:33:42.148Z,3.73
2018-01-17T06:36:09.688Z,3.67
2018-01-17T06:38:37.256Z,4.07
2018-01-17T06:41:04.912Z,3.43
2018-01-17T06:43:32.481Z,4.10
2018-01-17T06:46:00.822Z,4.30
2018-01-17T06:48:28.309Z,4.17
2018-01-17T06:50:55.830Z,4.50
2018-01-17T06:53:23.351Z,4.53
2018-01-17T06:55:50.896Z,4.40
2018-01-17T06:58:18.454Z,4.43
2018-01-17T07:00:45.962Z,4.33
2018-01-17T07:03:13.491Z,5.43
2018-01-17T07:05:41.046Z,5.43
2018-01-17T07:08:08.596Z,4.97
2018-01-17T07:10:36.167Z,5.13
2018-01-17T07:13:03.700Z,5.00
2018-01-17T07:15:31.220Z,5.10
2018-01-17T07:17:58.797Z,5.73
2018-01-17T07:20:26.332Z,5.90
2018-01-17T07:22:53.902Z,5.50
2018-01-17T07:25:21.415Z,5.73
2018-01-17T07:27:48.924Z,6.20
2018-01-17T07:30:16.482Z,6.13
2018-01-17T07:32:43.994Z,6.87
2018-01-17T07:35:11.643Z,6.27
2018-01-17T07:37:39.298Z,7.07
2018-01-17T07:40:06.830Z,7.13
2018-01-17T07:42:34.333Z,7.03
2018-01-17T07:45:01.833Z,7.53
2018-01-17T07:47:29.477Z,7.27
2018-01-17T07:49:57.098Z,7.87
2018-01-17T07:52:24.769Z,7.47
2018-01-17T07:54:52.354Z,7.70
2018-01-17T07:57:19.954Z,9.00
2018-01-17T07:59:47.469Z,8.47
2018-01-17T08:02:14.956Z,7.77
2018-01-17T08:04:42.494Z,7.93
2018-01-17T08:07:10.004Z,7.40
2018-01-17T08:09:37.606Z,7.93
2018-01-17T08:12:05.143Z,8.50
2018-01-17T08:14:32.671Z,7.23
2018-01-17T08:17:00.249Z,8.00
2018-01-17T08:19:27.830Z,8.13
2018-01-17T08:21:55.371Z,7.60
2018-01-17T08:24:22.952Z,7.63
2018-01-17T08:26:50.470Z,9.00
2018-01-17T08:29:18.028Z,7.60
2018-01-17T08:31:45.540Z,8.50
2018-01-17T08:34:13.407Z,7.90
2018-01-17T08:36:40.936Z,7.90
2018-01-17T08:39:08.449Z,7.93
2018-01-17T08:41:35.971Z,7.67
2018-01-17T08:44:03.472Z,7.57
2018-01-17T08:46:31.022Z,7.63
2018-01-17T08:48:58.600Z,7.30
2018-01-17T08:51:26.121Z,8.03
2018-01-17T08:53:53.612Z,7.13
2018-01-17T08:56:21.130Z,8.60
2018-01-17T08:58:48.696Z,7.67
2018-01-17T09:01:16.260Z,8.13
2018-01-17T09:03:43.758Z,7.83
2018-01-17T09:06:11.558Z,7.23
2018-01-17T09:08:39.153Z,8.13
2018-01-17T09:11:06.711Z,8.20
2018-01-17T09:13:34.286Z,7.73
2018-01-17T09:16:01.824Z,8.30
2018-01-17T09:18:29.375Z,8.10
2018-01-17T09:20:56.897Z,7.73
2018-01-17T09:23:24.400Z,8.57
2018-01-17T09:25:52.284Z,8.03
2018-01-17T09:28:19.772Z,7.43
2018-01-17T09:30:47.394Z,7.43
2018-01-17T09:33:14.896Z,8.10
2018-01-17T09:35:42.468Z,7.57
2018-01-17T09:38:09.968Z,7.77
2018-01-17T09:40:37.473Z,6.77
2018-01-17T09:43:05.053Z,6.90
2018-01-17T09:45:32.598Z,6.57
2018-01-17T09:48:00.104Z,6.73
2018-01-17T09:50:27.596Z,7.07
2018-01-17T09:52:55.131Z,6.97
2018-01-17T09:55:22.677Z,5.60
2018-01-17T09:57:50.188Z,6.60
2018-01-17T10:00:17.709Z,5.53
2018-01-17T10:02:45.261Z,5.67
2018-01-17T10:05:12.869Z,5.40
2018-01-17T10:07:40.475Z,5.23
2018-01-17T10:10:08.051Z,5.37
2018-01-17T10:12:35.646Z,5.10
2018-01-17T10:15:03.241Z,4.50
2018-01-17T10:17:30.824Z,4.83
2018-01-17T10:19:58.415Z,4.87
2018-01-17T10:22:26.034Z,4.33
2018-01-17T10:24:53.597Z,4.87
2018-01-17T10:27:21.104Z,4.23
2018-01-17T10:29:48.631Z,5.70
2018-01-17T10:32:16.200Z,5.57
2018-01-17T10:34:43.724Z,5.57
2018-01-17T10:37:11.263Z,6.27
2018-01-17T10:39:38.793Z,6.50
2018-01-17T10:42:06.361Z,6.63
2018-01-17T10:44:35.105Z,6.40
2018-01-17T10:47:02.596Z,6.50
2018-01-17T10:49:30.125Z,6.80
2018-01-17T10:51:57.608Z,6.40
2018-01-17T10:54:25.130Z,7.70
2018-01-17T10:56:52.632Z,6.97
2018-01-17T10:59:20.191Z,6.87
2018-01-17T11:01:47.726Z,6.30
2018-01-17T11:04:15.365Z,6.97
2018-01-17T11:06:42.904Z,5.93
2018-01-17T11:09:10.410Z,6.97
2018-01-17T11:11:37.942Z,7.13
2018-01-17T11:14:05.519Z,7.60
2018-01-17T11:16:33.030Z,6.33
2018-01-17T11:19:00.651Z,6.40
2018-01-17T11:21:28.157Z,6.90
2018-01-17T11:23:56.387Z,6.33
2018-01-17T11:26:23.937Z,5.53
2018-01-17T11:28:51.518Z,4.97
2018-01-17T11:31:18.997Z,5.23
2018-01-17T11:33:46.508Z,5.20
2018-01-17T11:36:14.060Z,5.33
2018-01-17T11:38:41.604Z,5.60
2018-01-17T11:41:09.101Z,5.07
2018-01-17T11:43:36.612Z,5.90
2018-01-17T11:46:04.178Z,5.57
2018-01-17T11:48:31.690Z,4.67
2018-01-17T11:50:59.184Z,5.00
2018-01-17T11:53:26.795Z,5.33
2018-01-17T11:55:54.352Z,4.20
2018-01-17T11:58:21.860Z,4.43
2018-01-17T12:00:49.408Z,4.90
2018-01-17T12:03:16.946Z,4.77
2018-01-17T12:05:44.446Z,4.67
2018-01-17T12:08:12.071Z,4.77
2018-01-17T12:10:39.570Z,4.80
2018-01-17T12:13:07.131Z,4.37
2018-01-17T12:15:34.626Z,5.23
2018-01-17T12:18:02.115Z,5.57
2018-01-17T12:20:29.588Z,4.60
2018-01-17T12:22:57.128Z,4.73
2018-01-17T12:25:24.727Z,4.87
2018-01-17T12:27:52.264Z,4.83
2018-01-17T12:30:19.811Z,4.83
2018-01-17T12:32:47.353Z,4.83
2018-01-17T12:35:14.989Z,5.33
2018-01-17T12:37:41.831Z,5.43
2018-01-17T12:40:09.361Z,3.90
2018-01-17T12:42:36.970Z,4.80
2018-01-17T12:45:04.548Z,4.43
2018-01-17T12:47:32.154Z,4.30
2018-01-17T12:49:59.694Z,5.03
2018-01-17T12:52:27.293Z,4.37
2018-01-17T12:54:54.901Z,4.20
2018-01-17T12:57:22.584Z,4.40
2018-01-17T12:59:50.285Z,3.47
2018-01-17T13:02:17.863Z,3.80
2018-01-17T13:04:45.418Z,3.67
2018-01-17T13:07:12.980Z,3.87
2018-01-17T13:09:40.685Z,3.77
2018-01-17T13:12:08.406Z,4.17
2018-01-17T13:14:36.477Z,4.20
2018-01-17T13:17:04.079Z,3.63
2018-01-17T13:19:31.658Z,3.70
2018-01-17T13:21:59.196Z,4.33
2018-01-17T13:24:26.819Z,4.40
2018-01-17T13:26:54.390Z,4.70
2018-01-17T13:29:22.868Z,5.07
2018-01-17T13:31:51.353Z,4.23
2018-01-17T13:34:19.023Z,4.43
2018-01-17T13:36:46.624Z,4.03
2018-01-17T13:39:14.282Z,5.17
2018-01-17T13:41:42.124Z,4.17
2018-01-17T13:44:10.631Z,4.33
2018-01-17T13:46:40.816Z,4.17
2018-01-17T13:49:11.132Z,4.23
2018-01-17T13:51:38.728Z,4.23
2018-01-17T13:54:06.282Z,4.73
2018-01-17T13:56:33.842Z,4.70
2018-01-17T13:59:01.382Z,4.20
2018-01-17T14:01:28.979Z,4.30
2018-01-17T14:03:56.513Z,4.70
2018-01-17T14:06:24.046Z,4.33
2018-01-17T14:08:51.606Z,4.27
2018-01-17T14:11:19.104Z,4.47
2018-01-17T14:13:46.646Z,4.70
2018-01-17T14:16:14.176Z,4.77
2018-01-17T14:18:41.762Z,4.53
2018-01-17T14:21:09.297Z,4.90
2018-01-17T14:23:36.820Z,5.90
2018-01-17T14:26:04.330Z,5.37
2018-01-17T14:28:31.890Z,5.03
2018-01-17T14:30:59.404Z,5.03
2018-01-17T14:33:27.442Z,5.37
2018-01-17T14:35:54.948Z,5.17
2018-01-17T14:38:22.444Z,5.17
2018-01-17T14:40:49.946Z,6.17
2018-01-17T14:43:17.537Z,5.40
2018-01-17T14:45:45.069Z,5.73
2018-01-17T14:48:12.657Z,5.00
2018-01-17T14:50:41.061Z,4.83
2018-01-17T14:53:08.660Z,5.00
2018-01-17T14:55:36.281Z,6.20
2018-01-17T14:58:03.839Z,6.60
2018-01-17T15:00:31.393Z,6.10
2018-01-17T15:02:59.097Z,6.70
2018-01-17T15:05:27.183Z,6.87
2018-01-17T15:07:54.829Z,6.73
2018-01-17T15:10:22.484Z,7.83
2018-01-17T15:12:51.776Z,7.57
2018-01-17T15:15:19.760Z,7.50
2018-01-17T15:17:49.143Z,7.77
2018-01-17T15:20:17.011Z,7.70
2018-01-17T15:22:44.897Z,8.57
2018-01-17T15:25:13.501Z,9.20
2018-01-17T15:27:42.579Z,9.87
2018-01-17T15:30:10.558Z,9.97
2018-01-17T15:32:39.556Z,10.40
2018-01-17T15:35:07.720Z,9.37
2018-01-17T15:37:36.389Z,10.37
2018-01-17T15:40:04.939Z,10.10
2018-01-17T15:42:32.746Z,10.17
2018-01-17T15:45:01.484Z,10.93
2018-01-17T15:47:29.976Z,9.60
2018-01-17T15:49:58.724Z,9.77
2018-01-17T15:52:26.365Z,9.30
2018-01-17T15:54:55.145Z,8.23
2018-01-17T15:57:22.827Z,9.47
2018-01-17T15:59:50.402Z,8.93
2018-01-17T16:02:18.297Z,8.10
2018-01-17T16:04:47.094Z,8.93
2018-01-17T16:07:14.949Z,8.93
2018-01-17T16:09:42.621Z,8.20
2018-01-17T16:12:10.469Z,8.07
2018-01-17T16:14:38.109Z,7.30
2018-01-17T16:17:05.795Z,7.70
2018-01-17T16:19:33.477Z,7.43
2018-01-17T16:22:01.942Z,6.53
2018-01-17T16:24:30.105Z,6.73
2018-01-17T16:26:58.182Z,6.73
2018-01-17T16:29:26.046Z,5.50
2018-01-17T16:31:53.644Z,4.93
2018-01-17T16:34:24.225Z,5.70
2018-01-17T16:36:53.135Z,4.53
2018-01-17T16:39:21.705Z,4.60
2018-01-17T16:41:49.311Z,4.20
2018-01-17T16:44:16.959Z,4.40
2018-01-17T16:46:44.594Z,4.33
2018-01-17T16:49:12.359Z,4.10
2018-01-17T16:51:40.009Z,3.90
2018-01-17T16:54:07.782Z,4.13
2018-01-17T16:56:35.644Z,4.17
2018-01-17T16:59:03.413Z,3.87
2018-01-17T17:01:31.049Z,3.70
2018-01-17T17:03:58.737Z,3.90
2018-01-17T17:06:26.419Z,4.20
2018-01-17T17:08:54.149Z,3.80
2018-01-17T17:11:21.739Z,3.50
2018-01-17T17:13:49.367Z,3.60
2018-01-17T17:16:17.004Z,3.47
2018-01-17T17:18:44.673Z,3.87
2018-01-17T17:21:12.183Z,3.53
2018-01-17T17:23:39.794Z,4.20
2018-01-17T17:26:07.602Z,3.77
2018-01-17T17:28:35.205Z,4.10
2018-01-17T17:31:02.728Z,3.67
2018-01-17T17:33:30.350Z,5.27
2018-01-17T17:35:58.010Z,4.13
2018-01-17T17:38:25.605Z,4.20
2018-01-17T17:40:53.319Z,4.17
2018-01-17T17:43:21.086Z,3.73
2018-01-17T17:45:48.688Z,4.13
2018-01-17T17:48:16.397Z,3.90
2018-01-17T17:50:44.290Z,3.90
2018-01-17T17:53:13.037Z,4.43
2018-01-17T17:55:40.560Z,3.97
2018-01-17T17:58:08.296Z,4.50
2018-01-17T18:00:35.883Z,4.40
2018-01-17T18:03:03.610Z,4.33
2018-01-17T18:05:31.272Z,4.00
2018-01-17T18:07:59.013Z,4.00
2018-01-17T18:10:26.560Z,3.70
2018-01-17T18:12:54.239Z,3.67
2018-01-17T18:15:21.917Z,3.70
2018-01-17T18:20:23.468Z,3.50
2018-01-17T18:22:57.994Z,3.90
2018-01-17T18:25:25.683Z,4.40
2018-01-17T18:27:53.331Z,4.67
2018-01-17T18:30:23.428Z,4.40
2018-01-17T18:32:51.089Z,3.90
2018-01-17T18:35:26.199Z,4.00
2018-01-17T18:37:55.874Z,4.47
2018-01-17T18:40:42.643Z,3.97
2018-01-17T18:43:10.231Z,4.30
2018-01-17T18:45:40.160Z,4.43
2018-01-17T18:48:11.659Z,4.47
2018-01-17T18:50:39.219Z,4.97
2018-01-17T18:53:06.712Z,4.10
2018-01-17T18:55:34.323Z,4.83
2018-01-17T18:58:01.904Z,4.77
2018-01-17T19:00:30.357Z,4.60
2018-01-17T19:02:58.860Z,4.57
2018-01-17T19:05:27.673Z,4.77
2018-01-17T19:08:00.347Z,4.40
2018-01-17T19:10:34.985Z,4.10
2018-01-17T19:13:03.043Z,4.40
2018-01-17T19:18:10.547Z,3.43
2018-01-17T19:20:39.274Z,3.70
2018-01-17T19:23:07.607Z,3.60
2018-01-17T19:25:40.881Z,3.53
2018-01-17T19:28:08.524Z,3.80
2018-01-17T19:30:36.937Z,4.07
2018-01-17T19:33:04.555Z,3.80
2018-01-17T19:35:32.128Z,3.67
2018-01-17T19:37:59.980Z,3.67
2018-01-17T19:40:27.537Z,3.93
2018-01-17T19:42:55.099Z,4.20
2018-01-17T19:45:22.833Z,4.00
2018-01-17T19:47:51.588Z,4.47
2018-01-17T19:50:20.703Z,4.27
2018-01-17T19:52:48.251Z,4.23
2018-01-17T19:55:15.785Z,4.20
2018-01-17T19:57:43.357Z,5.03
2018-01-17T20:00:10.903Z,5.37
2018-01-17T20:02:38.474Z,5.33
2018-01-17T20:05:06.082Z,4.43
2018-01-17T20:07:33.646Z,5.30
2018-01-17T20:10:01.208Z,5.07
2018-01-17T20:12:28.728Z,5.37
2018-01-17T20:14:56.251Z,5.17
2018-01-17T20:17:23.744Z,4.93
2018-01-17T20:19:51.365Z,5.00
2018-01-17T20:22:18.859Z,4.40
2018-01-17T20:24:46.400Z,5.43
2018-01-17T20:27:14.019Z,4.80
2018-01-17T20:29:41.585Z,5.30
2018-01-17T20:32:09.150Z,5.03
2018-01-17T20:34:36.676Z,5.13
2018-01-17T20:37:04.209Z,4.83
2018-01-17T20:39:37.232Z,5.00
2018-01-17T20:42:04.741Z,4.20
2018-01-17T20:44:32.589Z,5.50
2018-01-17T20:47:00.111Z,4.43
2018-01-17T20:49:27.620Z,4.60
2018-01-17T20:51:55.125Z,4.37
2018-01-17T20:54:22.641Z,4.57
2018-01-17T20:56:50.140Z,4.57
2018-01-17T20:59:17.654Z,5.67
2018-01-17T21:01:45.236Z,5.53
2018-01-17T21:04:12.783Z,6.13
2018-01-17T21:06:40.276Z,5.63
2018-01-17T21:09:07.887Z,6.70
2018-01-17T21:11:35.422Z,6.77
2018-01-17T21:14:03.001Z,7.40
2018-01-17T21:16:30.588Z,7.33
2018-01-17T21:18:58.086Z,6.97
2018-01-17T21:21:25.640Z,6.37
2018-01-17T21:23:53.155Z,6.80
2018-01-17T21:26:20.660Z,6.53
2018-01-17T21:28:48.163Z,6.97
2018-01-17T21:31:15.644Z,6.47
2018-01-17T21:33:43.152Z,7.10
2018-01-17T21:36:10.630Z,6.70
2018-01-17T21:38:38.142Z,6.17
2018-01-17T21:41:05.653Z,6.10
2018-01-17T21:43:38.742Z,5.37
2018-01-17T21:46:06.283Z,4.47
2018-01-17T21:48:33.803Z,4.00
2018-01-17T21:51:01.316Z,4.40
2018-01-17T21:53:28.814Z,3.87
2018-01-17T21:55:56.296Z,4.43
2018-01-17T21:58:23.787Z,3.90
2018-01-17T22:00:51.286Z,3.40
2018-01-17T22:03:18.824Z,2.70
2018-01-17T22:05:46.360Z,2.80
2018-01-17T22:08:13.855Z,2.73
2018-01-17T22:10:41.351Z,2.70
2018-01-17T22:13:11.631Z,2.90
2018-01-17T22:15:39.155Z,2.90
2018-01-17T22:18:06.657Z,3.10
2018-01-17T22:20:34.128Z,3.30
2018-01-17T22:23:01.631Z,3.80
2018-01-17T22:25:29.143Z,4.00
2018-01-17T22:27:56.653Z,3.50
2018-01-17T22:30:24.132Z,3.80
2018-01-17T22:32:51.608Z,4.00
2018-01-17T22:35:19.179Z,5.27
2018-01-17T22:37:47.443Z,4.87
2018-01-17T22:40:14.944Z,5.13
2018-01-17T22:42:42.451Z,5.20
2018-01-17T22:45:09.980Z,5.57
2018-01-17T22:47:37.508Z,5.50
2018-01-17T22:50:05.007Z,6.10
2018-01-17T22:52:32.492Z,6.27
2018-01-17T22:55:00.064Z,6.27
2018-01-17T22:57:28.118Z,7.80
2018-01-17T22:59:55.941Z,8.87
2018-01-17T23:02:23.484Z,7.03
2018-01-17T23:04:50.976Z,6.90
2018-01-17T23:07:18.485Z,8.33
2018-01-17T23:09:45.998Z,7.23
2018-01-17T23:12:13.507Z,7.40
2018-01-17T23:14:41.019Z,7.87
2018-01-17T23:17:08.524Z,9.07
2018-01-17T23:19:36.009Z,8.40
2018-01-17T23:22:03.960Z,8.93
2018-01-17T23:24:31.441Z,9.73
2018-01-17T23:26:58.954Z,9.17
2018-01-17T23:29:26.432Z,9.63
2018-01-17T23:31:53.960Z,8.53
2018-01-17T23:34:21.459Z,10.33
2018-01-17T23:36:48.963Z,10.00
2018-01-17T23:39:16.461Z,9.77
2018-01-17T23:41:44.731Z,10.20
2018-01-17T23:44:12.262Z,9.13
2018-01-17T23:46:39.749Z,9.30
2018-01-17T23:49:07.284Z,8.93
2018-01-17T23:51:34.784Z,10.07
2018-01-17T23:54:04.196Z,9.30
2018-01-17T23:56:32.165Z,9.07
2018-01-17T23:58:59.666Z,10.43
